Time;durP1;ratioP1;P1;durP2;ratioP2;P2;SDS_P1;SDS_P2;PMS_P1;PMS_P2;Temp;Humidity;BMP_temperature;BMP_pressure;BME280_temperature;BME280_humidity;BME280_pressure;Samples;Min_cycle;Max_cycle;Signal;HPM_P1;HPM_P2
2021/09/22 00:01:07;;;;;;;;;;;;;;;11.19;100.00;101772.16;4992938;28;20021;-72
2021/09/22 00:03:33;;;;;;;;;;;;;;;11.17;100.00;101764.13;4992760;28;20294;-71
2021/09/22 00:06:00;;;;;;;;;;;;;;;11.16;100.00;101775.09;4991598;28;19980;-72
2021/09/22 00:08:27;;;;;;;;;;;;;;;11.12;100.00;101769.00;4992609;28;20290;-72
2021/09/22 00:10:54;;;;;;;;;;;;;;;11.06;100.00;101777.53;4992953;28;19963;-73
2021/09/22 00:13:20;;;;;;;;;;;;;;;11.03;100.00;101775.03;4992744;28;20389;-73
2021/09/22 00:15:46;;;;;;;;;;;;;;;11.00;100.00;101773.38;4992655;28;20016;-72
2021/09/22 00:18:13;;;;;;;;;;;;;;;10.98;100.00;101763.59;4992428;28;20028;-72
2021/09/22 00:20:39;;;;;;;;;;;;;;;10.94;100.00;101767.50;4992867;28;19957;-72
2021/09/22 00:23:05;;;;;;;;;;;;;;;10.98;100.00;101774.47;4992758;28;19965;-73
2021/09/22 00:25:33;;;;;;;;;;;;;;;11.04;100.00;101764.06;4991391;28;19984;-72
2021/09/22 00:27:59;;;;;;;;;;;;;;;11.09;100.00;101766.47;4992703;28;19947;-72
2021/09/22 00:30:26;;;;;;;;;;;;;;;11.11;100.00;101761.81;4991309;28;19926;-72
2021/09/22 00:32:53;;;;;;;;;;;;;;;11.15;100.00;101767.91;4991510;28;19926;-72
2021/09/22 00:35:19;;;;;;;;;;;;;;;11.13;100.00;101768.03;4991039;28;19926;-72
2021/09/22 00:37:46;;;;;;;;;;;;;;;11.10;100.00;101768.19;4991049;28;19957;-72
2021/09/22 00:40:12;;;;;;;;;;;;;;;11.11;100.00;101761.81;4991280;28;19972;-73
2021/09/22 00:42:40;;;;;;;;;;;;;;;11.10;100.00;101756.47;4992258;28;19969;-74
2021/09/22 00:45:08;;;;;;;;;;;;;;;11.12;100.00;101752.69;4992640;28;19964;-73
2021/09/22 00:47:34;;;;;;;;;;;;;;;11.13;100.00;101753.53;4990839;28;20424;-73
2021/09/22 00:50:09;;;;;;;;;;;;;;;11.12;100.00;101752.69;4991335;28;19965;-73
2021/09/22 00:52:35;;;;;;;;;;;;;;;11.14;100.00;101758.88;4991172;28;20138;-72
2021/09/22 00:55:04;;;;;;;;;;;;;;;11.16;100.00;101758.78;4990788;28;19992;-73
2021/09/22 00:57:31;;;;;;;;;;;;;;;11.17;100.00;101760.50;4990864;28;19929;-73
2021/09/22 00:59:59;;;;;;;;;;;;;;;11.21;100.00;101756.59;4991032;28;20053;-73
2021/09/22 01:02:25;;;;;;;;;;;;;;;11.25;100.00;101762.72;4991107;28;19926;-73
2021/09/22 01:04:51;;;;;;;;;;;;;;;11.26;100.00;101749.03;4991026;28;19937;-73
2021/09/22 01:07:18;;;;;;;;;;;;;;;11.27;100.00;101750.78;4992177;28;20454;-73
2021/09/22 01:09:44;;;;;;;;;;;;;;;11.28;100.00;101749.81;4991031;28;19984;-73
2021/09/22 01:12:11;;;;;;;;;;;;;;;11.32;100.00;101755.91;4991998;28;20385;-73
2021/09/22 01:14:37;;;;;;;;;;;;;;;11.35;100.00;101753.81;4990509;28;19926;-73
2021/09/22 01:17:05;;;;;;;;;;;;;;;11.35;100.00;101758.41;4990690;28;20051;-73
2021/09/22 01:19:32;;;;;;;;;;;;;;;11.35;100.00;101756.53;4992280;28;20016;-73
2021/09/22 01:21:59;;;;;;;;;;;;;;;11.34;100.00;101759.38;4996175;28;20455;-73
2021/09/22 01:24:39;;;;;;;;;;;;;;;11.33;100.00;101757.63;4978545;28;19930;-73
2021/09/22 01:27:05;;;;;;;;;;;;;;;11.30;100.00;101755.13;4996081;28;20443;-73
2021/09/22 01:29:33;;;;;;;;;;;;;;;11.27;100.00;101758.06;4996069;28;20389;-73
2021/09/22 01:32:00;;;;;;;;;;;;;;;11.23;100.00;101758.25;4995156;28;20017;-73
2021/09/22 01:34:28;;;;;;;;;;;;;;;11.19;100.00;101761.28;4994256;28;19930;-73
2021/09/22 01:37:10;;;;;;;;;;;;;;;11.16;100.00;101770.53;4994444;28;19926;-73
2021/09/22 01:39:55;;;;;;;;;;;;;;;11.19;100.00;101772.16;4995911;28;20360;-72
2021/09/22 01:42:21;;;;;;;;;;;;;;;11.17;100.00;101763.22;4994787;28;19930;-73
2021/09/22 01:44:51;;;;;;;;;;;;;;;11.16;100.00;101770.53;4994279;28;21222;-73
2021/09/22 01:47:31;;;;;;;;;;;;;;;11.17;100.00;101760.50;4994419;28;19978;-73
2021/09/22 01:50:03;;;;;;;;;;;;;;;11.15;100.00;101766.06;4997212;28;20370;-73
2021/09/22 01:52:34;;;;;;;;;;;;;;;11.13;100.00;101756.25;4994219;28;19926;-73
2021/09/22 01:55:13;;;;;;;;;;;;;;;11.13;100.00;101756.25;4994379;28;19968;-73
2021/09/22 01:57:41;;;;;;;;;;;;;;;11.15;100.00;101766.06;4994299;28;19926;-72
2021/09/22 02:00:08;;;;;;;;;;;;;;;11.22;100.00;101761.06;4994342;28;19969;-72
2021/09/22 02:02:41;;;;;;;;;;;;;;;11.28;100.00;101759.81;4995585;28;20409;-73
2021/09/22 02:05:23;;;;;;;;;;;;;;;11.30;100.00;101757.84;4994234;28;19930;-72
2021/09/22 02:08:00;;;;;;;;;;;;;;;11.29;100.00;101756.09;4994152;28;19926;-73
2021/09/22 02:10:28;;;;;;;;;;;;;;;11.25;100.00;101760.00;4977712;28;20290;-72
2021/09/22 02:12:55;;;;;;;;;;;;;;;11.20;100.00;101763.91;4994000;28;19926;-73
2021/09/22 02:15:22;;;;;;;;;;;;;;;11.14;100.00;101753.44;4993834;28;19930;-73
2021/09/22 02:18:08;;;;;;;;;;;;;;;11.07;100.00;101762.13;4993815;28;19933;-72
2021/09/22 02:20:35;;;;;;;;;;;;;;;11.02;100.00;101765.13;4993745;28;19980;-73
2021/09/22 02:23:18;;;;;;;;;;;;;;;10.99;100.00;101762.63;4977484;28;20367;-72
2021/09/22 02:25:44;;;;;;;;;;;;;;;10.95;100.00;101764.66;4993576;28;19926;-72
2021/09/22 02:28:11;;;;;;;;;;;;;;;10.93;100.00;101761.19;4993829;28;19926;-73
2021/09/22 02:30:42;;;;;;;;;;;;;;;10.89;100.00;101765.97;4993663;28;19926;-72
2021/09/22 02:33:08;;;;;;;;;;;;;;;10.89;100.00;101765.97;4993484;28;20386;-73
2021/09/22 02:35:35;;;;;;;;;;;;;;;10.90;100.00;101766.81;4993476;28;20365;-72
2021/09/22 02:38:21;;;;;;;;;;;;;;;10.87;100.00;101769.75;4994652;28;19926;-73
2021/09/22 02:40:49;;;;;;;;;;;;;;;10.80;100.00;101777.44;4993644;28;19925;-72
2021/09/22 02:43:22;;;;;;;;;;;;;;;10.75;100.00;101767.84;4993447;28;20336;-73
2021/09/22 02:45:49;;;;;;;;;;;;;;;10.72;100.00;101769.78;4993604;28;20408;-72
2021/09/22 02:48:15;;;;;;;;;;;;;;;10.74;100.00;101771.53;4993494;28;19933;-72
2021/09/22 02:50:43;;;;;;;;;;;;;;;10.74;100.00;101764.22;4993066;28;19976;-73
2021/09/22 02:53:12;;;;;;;;;;;;;;;10.75;100.00;101768.69;4993642;28;20374;-72
2021/09/22 02:55:42;;;;;;;;;;;;;;;10.77;100.00;101766.78;4993060;28;19980;-72
2021/09/22 02:58:08;;;;;;;;;;;;;;;10.81;100.00;101764.69;4993207;28;20763;-72
2021/09/22 03:00:37;;;;;;;;;;;;;;;10.84;100.00;101768.09;4993070;28;19926;-72
2021/09/22 03:03:04;;;;;;;;;;;;;;;10.86;100.00;101771.59;4993322;28;20020;-72
2021/09/22 03:05:30;;;;;;;;;;;;;;;10.89;100.00;101771.38;4992826;28;20009;-73
2021/09/22 03:07:57;;;;;;;;;;;;;;;10.92;100.00;101777.59;4992841;28;19926;-72
2021/09/22 03:10:23;;;;;;;;;;;;;;;10.94;100.00;101776.50;4993321;28;19933;-72
2021/09/22 03:12:52;;;;;;;;;;;;;;;10.94;100.00;101784.66;4992868;28;19933;-72
2021/09/22 03:15:19;;;;;;;;;;;;;;;10.87;100.00;101781.47;4976808;28;19972;-73
2021/09/22 03:17:46;;;;;;;;;;;;;;;10.83;100.00;101782.66;4992694;28;19957;-73
2021/09/22 03:20:13;;;;;;;;;;;;;;;10.79;100.00;101786.53;4994268;28;19926;-72
2021/09/22 03:22:39;;;;;;;;;;;;;;;10.76;100.00;101788.59;4992843;28;20278;-73
2021/09/22 03:25:14;;;;;;;;;;;;;;;10.69;100.00;101789.00;4992489;28;19969;-72
2021/09/22 03:27:41;;;;;;;;;;;;;;;10.66;100.00;101796.44;4992461;28;19976;-73
2021/09/22 03:30:10;;;;;;;;;;;;;;;10.68;100.00;101786.38;4992670;28;19980;-73
2021/09/22 03:32:46;;;;;;;;;;;;;;;10.67;100.00;101799.06;4992775;28;19926;-72
2021/09/22 03:35:13;;;;;;;;;;;;;;;10.67;100.00;101800.91;4992626;28;20463;-72
2021/09/22 03:37:40;;;;;;;;;;;;;;;10.68;100.00;101810.81;4993319;28;19926;-72
2021/09/22 03:40:08;;;;;;;;;;;;;;;10.68;100.00;101802.69;4992418;28;19933;-72
2021/09/22 03:42:34;;;;;;;;;;;;;;;10.69;100.00;101804.44;4991685;28;19930;-72
2021/09/22 03:45:03;;;;;;;;;;;;;;;10.67;100.00;101799.06;4992240;28;19977;-72
2021/09/22 03:47:31;;;;;;;;;;;;;;;10.70;100.00;101808.84;4993123;28;19992;-72
2021/09/22 03:49:58;;;;;;;;;;;;;;;10.74;100.00;101798.69;4992278;28;19957;-72
2021/09/22 03:52:42;;;;;;;;;;;;;;;10.79;100.00;101805.56;4992228;28;19925;-72
2021/09/22 03:55:09;;;;;;;;;;;;;;;10.83;100.00;101809.81;4992008;28;19925;-72
2021/09/22 03:57:36;;;;;;;;;;;;;;;10.85;100.00;101810.59;4991808;28;19932;-72
2021/09/22 04:00:04;;;;;;;;;;;;;;;10.87;100.00;101807.78;4994427;28;19968;-73
2021/09/22 04:02:41;;;;;;;;;;;;;;;10.89;100.00;101820.28;4993008;28;20305;-73
2021/09/22 04:05:08;;;;;;;;;;;;;;;10.93;100.00;101812.81;4991867;28;19925;-73
2021/09/22 04:07:36;;;;;;;;;;;;;;;10.96;100.00;101809.03;4991816;28;19934;-73
2021/09/22 04:10:03;;;;;;;;;;;;;;;10.98;100.00;101812.50;4993077;28;19926;-73
2021/09/22 04:12:30;;;;;;;;;;;;;;;11.01;100.00;101812.28;4991579;28;19926;-72
2021/09/22 04:14:59;;;;;;;;;;;;;;;11.02;100.00;101814.94;4991787;28;19933;-72
2021/09/22 04:17:25;;;;;;;;;;;;;;;11.02;100.00;101814.03;4991332;28;19926;-73
2021/09/22 04:19:53;;;;;;;;;;;;;;;11.05;100.00;101819.28;4991307;28;20348;-72
2021/09/22 04:22:23;;;;;;;;;;;;;;;11.08;100.00;101819.06;4991550;28;20324;-72
2021/09/22 04:24:50;;;;;;;;;;;;;;;11.09;100.00;101822.66;4991699;28;19926;-72
2021/09/22 04:27:17;;;;;;;;;;;;;;;11.10;100.00;101827.13;4991393;28;19926;-72
2021/09/22 04:29:55;;;;;;;;;;;;;;;11.11;100.00;101832.44;4991530;28;20020;-72
2021/09/22 04:32:40;;;;;;;;;;;;;;;11.09;100.00;101836.25;4992782;28;19926;-72
2021/09/22 04:35:35;;;;;;;;;;;;;;;11.04;100.00;101828.41;4984138;28;19926;-73
2021/09/22 04:38:30;;;;;;;;;;;;;;;11.00;100.00;101830.44;4984381;28;20101;-73
2021/09/22 04:41:15;;;;;;;;;;;;;;;11.01;100.00;101839.44;5003794;28;19933;-72
2021/09/22 04:44:01;;;;;;;;;;;;;;;11.00;100.00;101843.16;4992634;28;19989;-72
2021/09/22 04:46:46;;;;;;;;;;;;;;;11.00;100.00;101854.03;5002314;28;19926;-72
2021/09/22 04:49:31;;;;;;;;;;;;;;;11.00;100.00;101854.91;5005074;28;19936;-73
2021/09/22 04:52:17;;;;;;;;;;;;;;;11.04;100.00;101856.44;4992043;28;19956;-73
2021/09/22 04:55:02;;;;;;;;;;;;;;;11.01;100.00;101855.75;4990135;28;20372;-73
2021/09/22 04:57:48;;;;;;;;;;;;;;;11.02;100.00;101866.56;4991853;28;20024;-72
2021/09/22 05:00:33;;;;;;;;;;;;;;;11.04;100.00;101861.00;4992005;28;19926;-73
2021/09/22 05:03:25;;;;;;;;;;;;;;;11.06;100.00;101859.06;4983511;28;19926;-73
2021/09/22 05:06:11;;;;;;;;;;;;;;;11.02;100.00;101858.41;4992030;28;20060;-73
2021/09/22 05:08:57;;;;;;;;;;;;;;;11.02;100.00;101854.78;4992075;28;19972;-73
2021/09/22 05:11:43;;;;;;;;;;;;;;;11.00;100.00;101849.47;4992237;28;19926;-73
2021/09/22 05:14:28;;;;;;;;;;;;;;;10.98;100.00;101861.41;4992135;28;20305;-73
2021/09/22 05:17:13;;;;;;;;;;;;;;;10.98;100.00;101855.97;4991704;28;19926;-73
2021/09/22 05:19:58;;;;;;;;;;;;;;;10.98;100.00;101861.41;4992019;28;19984;-73
2021/09/22 05:22:43;;;;;;;;;;;;;;;10.98;100.00;101861.41;4991896;28;19932;-73
2021/09/22 05:25:29;;;;;;;;;;;;;;;10.99;100.00;101868.59;4991835;28;19947;-73
2021/09/22 05:28:14;;;;;;;;;;;;;;;11.00;100.00;101883.91;4991630;28;19977;-73
2021/09/22 05:30:59;;;;;;;;;;;;;;;11.05;100.00;101884.50;4991830;28;20024;-73
2021/09/22 05:33:44;;;;;;;;;;;;;;;11.08;100.00;101889.72;4992616;28;20044;-73
2021/09/22 05:36:34;;;;;;;;;;;;;;;11.09;100.00;101891.47;4989405;28;19933;-72
2021/09/22 05:39:19;;;;;;;;;;;;;;;11.14;100.00;101889.31;4993890;28;20505;-72
2021/09/22 05:42:05;;;;;;;;;;;;;;;11.15;100.00;101888.34;4996790;28;19930;-72
2021/09/22 05:44:50;;;;;;;;;;;;;;;11.18;100.00;101885.44;5000091;28;19925;-72
2021/09/22 05:47:36;;;;;;;;;;;;;;;11.25;100.00;101885.03;5010928;28;19929;-72
2021/09/22 05:50:21;;;;;;;;;;;;;;;11.29;100.00;101892.00;5010209;28;20024;-73
2021/09/22 05:53:06;;;;;;;;;;;;;;;11.27;100.00;101881.22;5006713;28;20001;-73
2021/09/22 05:55:51;;;;;;;;;;;;;;;11.28;100.00;101884.84;5012177;28;20404;-73
2021/09/22 05:58:38;;;;;;;;;;;;;;;11.30;100.00;101889.19;5019765;28;19925;-73
2021/09/22 06:01:23;;;;;;;;;;;;;;;11.33;100.00;101888.09;5010804;28;20389;-73
2021/09/22 06:04:08;;;;;;;;;;;;;;;11.38;100.00;101884.13;4991447;28;19926;-73
2021/09/22 06:06:38;;;;;;;;;;;;;;;11.45;100.00;101883.69;4996658;28;19933;-73
2021/09/22 06:09:23;;;;;;;;;;;;;;;11.46;100.00;101885.44;4998449;28;20476;-73
2021/09/22 06:12:08;;;;;;;;;;;;;;;11.52;100.00;101885.91;4981623;28;19969;-72
2021/09/22 06:14:36;;;;;;;;;;;;;;;11.56;100.00;101892.88;4996148;28;19933;-72
2021/09/22 06:17:03;;;;;;;;;;;;;;;11.56;100.00;101892.88;5013744;28;19969;-72
2021/09/22 06:19:32;;;;;;;;;;;;;;;11.61;100.00;101903.47;5008289;28;20032;-73
2021/09/22 06:21:58;;;;;;;;;;;;;;;11.61;100.00;101908.03;4996662;28;19988;-72
2021/09/22 06:24:30;;;;;;;;;;;;;;;11.58;100.00;101909.09;4998199;28;19929;-72
2021/09/22 06:27:08;;;;;;;;;;;;;;;11.64;100.00;101919.59;5013160;28;19937;-72
2021/09/22 06:29:36;;;;;;;;;;;;;;;11.69;100.00;101912.00;5012644;28;20081;-74
2021/09/22 06:32:02;;;;;;;;;;;;;;;11.73;100.00;101924.41;5014303;28;20004;-74
2021/09/22 06:34:52;;;;;;;;;;;;;;;11.79;100.00;101914.09;5007625;28;19925;-73
2021/09/22 06:37:28;;;;;;;;;;;;;;;11.78;100.00;101915.91;4987291;28;20015;-73
2021/09/22 06:40:08;;;;;;;;;;;;;;;11.77;100.00;101908.75;5012330;28;20019;-72
2021/09/22 06:42:35;;;;;;;;;;;;;;;11.80;100.00;101913.09;4996060;28;20286;-73
2021/09/22 06:45:03;;;;;;;;;;;;;;;11.83;100.00;101918.34;4997310;28;20085;-73
2021/09/22 06:47:30;;;;;;;;;;;;;;;11.81;100.00;101928.44;5000234;28;20479;-73
2021/09/22 06:49:56;;;;;;;;;;;;;;;11.88;100.00;101927.06;4999572;28;20361;-73
2021/09/22 06:52:22;;;;;;;;;;;;;;;11.99;100.00;101929.09;5014749;28;19925;-74
2021/09/22 06:54:49;;;;;;;;;;;;;;;12.01;100.00;101933.47;5033715;28;19925;-74
2021/09/22 06:57:15;;;;;;;;;;;;;;;12.08;100.00;101931.19;5012883;28;20461;-73
2021/09/22 06:59:41;;;;;;;;;;;;;;;12.09;100.00;101937.50;5013440;28;19969;-74
2021/09/22 07:02:09;;;;;;;;;;;;;;;12.09;100.00;101935.63;5003564;28;20409;-73
2021/09/22 07:04:35;;;;;;;;;;;;;;;12.10;100.00;101929.22;4992589;28;20021;-74
2021/09/22 07:07:02;;;;;;;;;;;;;;;12.13;100.00;101925.41;4993918;28;20007;-74
2021/09/22 07:09:29;;;;;;;;;;;;;;;12.13;100.00;101915.41;5004147;28;19935;-74
2021/09/22 07:11:55;;;;;;;;;;;;;;;12.19;100.00;101925.00;5002198;28;20008;-74
2021/09/22 07:14:21;;;;;;;;;;;;;;;12.13;100.00;101937.19;4995156;28;19957;-74
2021/09/22 07:16:48;;;;;;;;;;;;;;;12.18;100.00;101924.09;4993768;28;19973;-74
2021/09/22 07:19:15;;;;;;;;;;;;;;;12.15;100.00;101927.06;5004651;28;20030;-75
2021/09/22 07:21:41;;;;;;;;;;;;;;;12.16;100.00;101927.91;5012821;28;20432;-74
2021/09/22 07:24:08;;;;;;;;;;;;;;;12.18;100.00;101931.41;5013327;28;19925;-74
2021/09/22 07:26:34;;;;;;;;;;;;;;;12.17;100.00;101940.56;5011374;28;19953;-75
2021/09/22 07:29:01;;;;;;;;;;;;;;;12.16;100.00;101936.97;5019766;28;20056;-75
2021/09/22 07:31:27;;;;;;;;;;;;;;;12.22;100.00;101927.50;5019668;28;19968;-75
2021/09/22 07:33:53;;;;;;;;;;;;;;;12.14;100.00;101932.59;5011528;28;19926;-75
2021/09/22 07:36:21;;;;;;;;;;;;;;;12.15;100.00;101937.94;4994879;28;19925;-74
2021/09/22 07:38:47;;;;;;;;;;;;;;;12.20;100.00;101938.50;4993650;28;20020;-74
2021/09/22 07:41:14;;;;;;;;;;;;;;;12.31;100.00;101934.16;5003212;28;19957;-74
2021/09/22 07:43:40;;;;;;;;;;;;;;;12.35;100.00;101935.69;5011450;28;20014;-75
2021/09/22 07:46:06;;;;;;;;;;;;;;;12.48;100.00;101942.03;4995288;28;19957;-74
2021/09/22 07:48:34;;;;;;;;;;;;;;;12.60;100.00;101936.69;5008971;28;20017;-74
2021/09/22 07:51:00;;;;;;;;;;;;;;;12.64;100.00;101930.03;5011767;28;20028;-82
2021/09/22 07:53:28;;;;;;;;;;;;;;;12.59;100.00;101932.22;5012075;28;19991;-80
2021/09/22 07:55:54;;;;;;;;;;;;;;;12.66;100.00;101944.44;5012603;28;20029;-77
2021/09/22 07:58:21;;;;;;;;;;;;;;;12.67;100.00;101946.19;4995881;28;20382;-78
2021/09/22 08:00:47;;;;;;;;;;;;;;;12.73;100.00;101945.72;4992631;28;20004;-78
2021/09/22 08:03:13;;;;;;;;;;;;;;;12.69;100.00;101949.66;5007281;28;19925;-78
2021/09/22 08:05:40;;;;;;;;;;;;;;;12.67;100.00;101954.34;5008709;28;19929;-78
2021/09/22 08:08:06;;;;;;;;;;;;;;;12.66;100.00;101960.78;4993799;28;19930;-77
2021/09/22 08:10:34;;;;;;;;;;;;;;;12.66;100.00;101967.09;5002694;28;20419;-77
2021/09/22 08:13:01;;;;;;;;;;;;;;;12.65;100.00;101965.34;4999290;28;19968;-79
2021/09/22 08:15:27;;;;;;;;;;;;;;;12.54;100.00;101966.09;4998496;28;19934;-78
2021/09/22 08:17:53;;;;;;;;;;;;;;;12.59;100.00;101965.78;4993463;28;19957;-78
2021/09/22 08:20:20;;;;;;;;;;;;;;;12.69;100.00;101966.00;5012210;28;19932;-80
2021/09/22 08:22:48;;;;;;;;;;;;;;;12.69;100.00;101969.63;5009428;28;20422;-81
2021/09/22 08:25:14;;;;;;;;;;;;;;;12.73;100.00;101964.81;5010003;28;19925;-79
2021/09/22 08:27:42;;;;;;;;;;;;;;;12.80;100.00;101971.56;5011050;28;19973;-79
2021/09/22 08:30:09;;;;;;;;;;;;;;;12.68;100.00;101981.50;5002555;28;19925;-80
2021/09/22 08:32:36;;;;;;;;;;;;;;;12.81;100.00;101978.75;5023037;28;19929;-81
2021/09/22 08:35:02;;;;;;;;;;;;;;;12.97;100.00;101974.94;5014000;28;19983;-80
2021/09/22 08:37:28;;;;;;;;;;;;;;;12.95;100.00;101972.34;5009500;28;19973;-79
2021/09/22 08:39:55;;;;;;;;;;;;;;;12.95;100.00;101966.00;5005632;28;20309;-80
2021/09/22 08:42:21;;;;;;;;;;;;;;;12.97;100.00;101959.44;4994909;28;19997;-79
2021/09/22 08:44:50;;;;;;;;;;;;;;;12.93;100.00;101967.97;5005245;28;19961;-80
2021/09/22 08:47:16;;;;;;;;;;;;;;;12.85;100.00;101966.69;4998020;28;19930;-80
2021/09/22 08:49:43;;;;;;;;;;;;;;;12.87;100.00;101969.28;5013411;28;20459;-80
2021/09/22 08:52:09;;;;;;;;;;;;;;;12.96;100.00;101975.91;5027997;28;19971;-81
2021/09/22 08:54:36;;;;;;;;;;;;;;;13.04;100.00;101979.84;5012804;28;19933;-80
2021/09/22 08:57:04;;;;;;;;;;;;;;;12.96;100.00;101984.09;5011508;28;20295;-78
2021/09/22 08:59:31;;;;;;;;;;;;;;;13.00;100.00;101975.59;4999849;28;19929;-77
2021/09/22 09:02:05;;;;;;;;;;;;;;;13.10;100.00;101975.81;4991134;28;19965;-76
2021/09/22 09:04:32;;;;;;;;;;;;;;;13.21;100.00;101972.28;5002366;28;19968;-76
2021/09/22 09:06:58;;;;;;;;;;;;;;;13.34;100.00;101970.41;5008684;28;19966;-77
2021/09/22 09:09:31;;;;;;;;;;;;;;;13.44;100.00;101962.47;5004092;28;19926;-77
2021/09/22 09:11:58;;;;;;;;;;;;;;;13.48;100.00;101964.00;4997973;28;20344;-77
2021/09/22 09:14:24;;;;;;;;;;;;;;;13.34;100.00;101962.22;5011482;28;20021;-78
2021/09/22 09:16:50;;;;;;;;;;;;;;;13.29;100.00;101969.00;5010971;28;19926;-78
2021/09/22 09:19:19;;;;;;;;;;;;;;;13.45;100.00;101958.75;5001116;28;20449;-77
2021/09/22 09:21:56;;;;;;;;;;;;;;;13.75;100.00;101962.91;5011717;28;19961;-77
2021/09/22 09:24:29;;;;;;;;;;;;;;;13.97;100.00;101966.75;5010224;28;19972;-79
2021/09/22 09:27:03;;;;;;;;;;;;;;;14.19;100.00;101961.38;5004346;28;20396;-77
2021/09/22 09:29:29;;;;;;;;;;;;;;;14.19;100.00;101952.28;5012448;28;20292;-78
2021/09/22 09:32:12;;;;;;;;;;;;;;;14.21;100.00;101955.78;5018861;28;19976;-78
2021/09/22 09:34:56;;;;;;;;;;;;;;;14.14;100.00;101963.59;5006522;28;19926;-78
2021/09/22 09:37:28;;;;;;;;;;;;;;;14.10;100.00;101955.75;5007822;28;19925;-78
2021/09/22 09:39:54;;;;;;;;;;;;;;;14.32;100.00;101958.56;5000940;28;19983;-77
2021/09/22 09:42:27;;;;;;;;;;;;;;;14.42;100.00;101947.78;5034843;28;20337;-77
2021/09/22 09:44:56;;;;;;;;;;;;;;;14.48;100.00;101952.75;5013414;28;20523;-77
2021/09/22 09:47:22;;;;;;;;;;;;;;;14.53;100.00;101947.81;4997486;28;19965;-77
2021/09/22 09:49:50;;;;;;;;;;;;;;;14.65;100.00;101954.19;5005513;28;19981;-77
2021/09/22 09:52:16;;;;;;;;;;;;;;;14.75;100.00;101942.53;5002322;28;19963;-77
2021/09/22 09:54:49;;;;;;;;;;;;;;;14.83;100.00;101946.41;5009688;28;20029;-77
2021/09/22 09:57:16;;;;;;;;;;;;;;;14.77;100.00;101946.91;5013076;28;19933;-72
2021/09/22 09:59:43;;;;;;;;;;;;;;;14.63;100.00;101947.09;5007310;28;20032;-73
2021/09/22 10:02:22;;;;;;;;;;;;;;;14.61;100.00;101951.81;4994985;28;20013;-73
2021/09/22 10:04:48;;;;;;;;;;;;;;;14.54;100.00;101946.81;5008538;28;19961;-72
2021/09/22 10:07:16;;;;;;;;;;;;;;;14.55;100.00;101947.69;5006874;28;20391;-73
2021/09/22 10:09:43;;;;;;;;;;;;;;;14.63;100.00;101949.81;4994968;28;19980;-72
2021/09/22 10:12:10;;;;;;;;;;;;;;;14.44;100.00;101948.53;5000607;28;19952;-72
2021/09/22 10:14:36;;;;;;;;;;;;;;;14.37;100.00;101955.47;5012653;28;20343;-72
2021/09/22 10:17:02;;;;;;;;;;;;;;;14.28;100.00;101950.72;4996863;28;19964;-70
2021/09/22 10:19:29;;;;;;;;;;;;;;;14.51;100.00;101946.19;5005519;28;20016;-72
2021/09/22 10:21:55;;;;;;;;;;;;;;;14.57;100.00;101932.06;4999287;28;19929;-72
2021/09/22 10:24:23;;;;;;;;;;;;;;;14.62;100.00;101934.41;5005679;28;19956;-74
2021/09/22 10:26:50;;;;;;;;;;;;;;;14.71;100.00;101941.91;4993124;28;20401;-74
2021/09/22 10:29:20;;;;;;;;;;;;;;;14.85;100.00;101938.09;4996649;28;19964;-73
2021/09/22 10:31:47;;;;;;;;;;;;;;;14.88;100.00;101938.72;4998928;28;20424;-74
2021/09/22 10:34:25;;;;;;;;;;;;;;;14.98;100.00;101927.00;4994608;28;20361;-73
2021/09/22 10:36:51;;;;;;;;;;;;;;;14.81;100.00;101931.13;5011535;28;19926;-75
2021/09/22 10:39:25;;;;;;;;;;;;;;;14.82;100.00;101921.94;5007351;28;20422;-72
2021/09/22 10:41:52;;;;;;;;;;;;;;;14.95;100.00;101927.28;5007059;28;19972;-73
2021/09/22 10:44:31;;;;;;;;;;;;;;;15.30;100.00;101926.25;5006838;28;20032;-73
2021/09/22 10:47:12;;;;;;;;;;;;;;;15.59;100.00;101920.22;5003548;28;20304;-72
2021/09/22 10:49:38;;;;;;;;;;;;;;;15.66;100.00;101919.59;4993914;28;19976;-72
2021/09/22 10:52:05;;;;;;;;;;;;;;;15.92;100.00;101929.38;4992256;28;20010;-72
2021/09/22 10:54:32;;;;;;;;;;;;;;;16.31;100.00;101927.78;4993716;28;20397;-73
2021/09/22 10:57:00;;;;;;;;;;;;;;;16.67;100.00;101916.47;4993255;28;19984;-73
2021/09/22 10:59:35;;;;;;;;;;;;;;;16.83;100.00;101911.38;4993922;28;20374;-72
2021/09/22 11:02:01;;;;;;;;;;;;;;;16.85;100.00;101900.25;4994413;28;19942;-72
2021/09/22 11:04:48;;;;;;;;;;;;;;;16.66;100.00;101907.41;4993971;28;19977;-73
2021/09/22 11:07:14;;;;;;;;;;;;;;;16.73;100.00;101900.34;4993743;28;20393;-72
2021/09/22 11:09:42;;;;;;;;;;;;;;;16.60;100.00;101898.84;4993340;28;19975;-72
2021/09/22 11:12:11;;;;;;;;;;;;;;;16.45;100.00;101890.97;4993954;28;19929;-72
2021/09/22 11:14:38;;;;;;;;;;;;;;;16.56;100.00;101892.78;4995052;28;19925;-72
2021/09/22 11:17:07;;;;;;;;;;;;;;;16.70;100.00;101888.78;5001822;28;19933;-72
2021/09/22 11:19:34;;;;;;;;;;;;;;;16.99;100.00;101894.44;5013355;28;20634;-72
2021/09/22 11:22:01;;;;;;;;;;;;;;;17.19;100.00;101897.25;5013168;28;20428;-72
2021/09/22 11:24:28;;;;;;;;;;;;;;;16.95;100.00;101892.13;5013255;28;19992;-72
2021/09/22 11:26:57;;;;;;;;;;;;;;;17.07;100.00;101891.00;5013302;28;19937;-72
2021/09/22 11:29:31;;;;;;;;;;;;;;;17.29;100.00;101895.41;5012885;28;20020;-72
2021/09/22 11:31:57;;;;;;;;;;;;;;;17.59;100.00;101890.84;5013014;28;20019;-71
2021/09/22 11:34:25;;;;;;;;;;;;;;;17.89;100.00;101877.97;5019401;28;20011;-71
2021/09/22 11:37:03;;;;;;;;;;;;;;;18.07;100.00;101873.53;5031608;28;19925;-72
2021/09/22 11:39:29;;;;;;;;;;;;;;;18.19;100.00;101876.97;5024536;28;20397;-74
2021/09/22 11:41:57;;;;;;;;;;;;;;;18.22;100.00;101870.31;4999620;28;19929;-74
2021/09/22 11:44:25;;;;;;;;;;;;;;;18.19;100.00;101866.00;5013029;28;20430;-74
2021/09/22 11:46:52;;;;;;;;;;;;;;;18.10;100.00;101861.38;5011950;28;19987;-75
2021/09/22 11:49:19;;;;;;;;;;;;;;;18.38;100.00;101865.06;5013234;28;20301;-75
2021/09/22 11:51:45;;;;;;;;;;;;;;;18.37;100.00;101862.47;5010115;28;19969;-76
2021/09/22 11:54:17;;;;;;;;;;;;;;;17.96;100.00;101872.81;5012465;28;19926;-74
2021/09/22 11:56:44;;;;;;;;;;;;;;;17.84;100.00;101867.44;5010066;28;20355;-76
2021/09/22 11:59:11;;;;;;;;;;;;;;;17.56;100.00;101866.44;5032287;28;19956;-77
2021/09/22 12:01:38;;;;;;;;;;;;;;;17.34;100.00;101859.31;5015391;28;20012;-76
2021/09/22 12:04:05;;;;;;;;;;;;;;;17.33;100.00;101865.78;5002271;28;19930;-77
2021/09/22 12:06:31;;;;;;;;;;;;;;;17.39;100.00;101870.72;4994377;28;19964;-76
2021/09/22 12:09:05;;;;;;;;;;;;;;;17.72;100.00;101869.47;4992939;28;19964;-77
2021/09/22 12:11:32;;;;;;;;;;;;;;;18.26;100.00;101862.66;4994525;28;20016;-76
2021/09/22 12:13:58;;;;;;;;;;;;;;;18.40;100.00;101864.94;4992407;28;19926;-76
2021/09/22 12:16:29;;;;;;;;;;;;;;;18.56;100.00;101862.44;4992548;28;19930;-76
2021/09/22 12:18:56;;;;;;;;;;;;;;;18.57;100.00;101858.69;5006159;28;20028;-75
2021/09/22 12:21:23;;;;;;;;;;;;;;;18.47;100.00;101862.47;5012173;28;20400;-76
2021/09/22 12:23:49;;;;;;;;;;;;;;;18.18;100.00;101853.25;5006709;28;19976;-76
2021/09/22 12:26:17;;;;;;;;;;;;;;;18.17;100.00;101851.56;5007473;28;20456;-76
2021/09/22 12:28:43;;;;;;;;;;;;;;;18.17;100.00;101847.91;5011810;28;20400;-75
2021/09/22 12:31:14;;;;;;;;;;;;;;;18.33;100.00;101847.31;5010158;28;19971;-74
2021/09/22 12:33:41;;;;;;;;;;;;;;;18.51;100.00;101834.53;4993949;28;20397;-74
2021/09/22 12:36:12;;;;;;;;;;;;;;;18.98;100.00;101843.75;4998988;28;19972;-75
2021/09/22 12:38:46;;;;;;;;;;;;;;;19.56;100.00;101840.63;4997229;28;20383;-75
2021/09/22 12:41:12;;;;;;;;;;;;;;;19.88;100.00;101843.84;5009098;28;20017;-72
2021/09/22 12:43:38;;;;;;;;;;;;;;;20.15;100.00;101829.09;5011008;28;19969;-72
2021/09/22 12:46:06;;;;;;;;;;;;;;;20.92;100.00;101828.34;5011559;28;19995;-71